Time;durP1;ratioP1;P1;durP2;ratioP2;P2;SDS_P1;SDS_P2;PMS_P1;PMS_P2;Temp;Humidity;BMP_temperature;BMP_pressure;BME280_temperature;BME280_humidity;BME280_pressure;Samples;Min_cycle;Max_cycle;Signal;HPM_P1;HPM_P2
2023/03/01 00:02:13;;;;;;;12.57;7.68;;;1.00;98.20;;;;;;5004156;28;20081;-35
2023/03/01 00:04:39;;;;;;;12.30;7.50;;;0.90;98.40;;;;;;5007962;28;20048;-35
2023/03/01 00:07:04;;;;;;;13.52;7.78;;;0.90;98.50;;;;;;5006039;28;20038;-36
2023/03/01 00:09:30;;;;;;;15.05;7.55;;;0.90;98.80;;;;;;5000917;28;20042;-36
2023/03/01 00:11:56;;;;;;;13.25;8.13;;;0.90;98.80;;;;;;5019777;28;20033;-36
2023/03/01 00:14:21;;;;;;;18.63;8.30;;;0.90;98.90;;;;;;5003886;28;20451;-36
2023/03/01 00:16:47;;;;;;;13.35;7.00;;;0.90;98.90;;;;;;5000948;28;20048;-35
2023/03/01 00:19:18;;;;;;;12.98;7.90;;;0.80;98.80;;;;;;5004824;28;20064;-36
2023/03/01 00:21:44;;;;;;;12.18;7.60;;;0.80;99.00;;;;;;5003063;28;20050;-36
2023/03/01 00:24:12;;;;;;;13.60;8.07;;;0.80;99.10;;;;;;5003572;28;20070;-36
2023/03/01 00:26:37;;;;;;;12.70;7.88;;;0.80;99.30;;;;;;5004240;28;20038;-37
2023/03/01 00:29:03;;;;;;;15.40;8.43;;;0.70;99.20;;;;;;5004063;28;20076;-35
2023/03/01 00:31:31;;;;;;;13.82;8.40;;;0.70;99.10;;;;;;4996849;28;20092;-36
2023/03/01 00:34:04;;;;;;;13.48;8.27;;;0.70;99.40;;;;;;5003652;28;20038;-36
2023/03/01 00:36:32;;;;;;;12.60;7.70;;;0.70;99.60;;;;;;5004187;28;20050;-36
2023/03/01 00:38:58;;;;;;;12.63;7.43;;;0.70;99.70;;;;;;5002187;28;20573;-37
2023/03/01 00:41:26;;;;;;;15.18;8.13;;;0.60;99.80;;;;;;5019188;28;20041;-36
2023/03/01 00:43:52;;;;;;;14.50;8.45;;;0.60;99.80;;;;;;5006310;28;20057;-36
2023/03/01 00:46:20;;;;;;;15.95;8.32;;;0.60;99.90;;;;;;5005914;28;20042;-35
2023/03/01 00:48:49;;;;;;;12.85;7.70;;;0.50;99.90;;;;;;5005257;28;20081;-35
2023/03/01 00:51:21;;;;;;;13.05;7.82;;;0.50;99.90;;;;;;5006621;28;20045;-35
2023/03/01 00:53:51;;;;;;;15.77;8.50;;;0.50;99.90;;;;;;5005702;28;20064;-36
2023/03/01 00:56:17;;;;;;;12.45;7.50;;;0.50;99.90;;;;;;4997131;28;20037;-37
2023/03/01 00:58:43;;;;;;;13.80;7.65;;;0.50;99.90;;;;;;5003220;28;20057;-35
2023/03/01 01:01:17;;;;;;;12.35;7.07;;;0.40;99.90;;;;;;5001442;28;20045;-37
2023/03/01 01:03:52;;;;;;;13.90;7.97;;;0.40;99.90;;;;;;5004478;28;20034;-37
2023/03/01 01:06:48;;;;;;;15.02;8.30;;;0.40;99.90;;;;;;5003602;28;21495;-36
2023/03/01 01:09:19;;;;;;;14.43;7.55;;;0.30;99.90;;;;;;4994167;28;20579;-35
2023/03/01 01:11:50;;;;;;;12.70;7.90;;;0.30;99.90;;;;;;5003271;28;20520;-37
2023/03/01 01:14:17;;;;;;;15.23;8.73;;;0.30;99.90;;;;;;5005148;28;20069;-37
2023/03/01 01:16:43;;;;;;;14.77;7.88;;;0.30;99.90;;;;;;5003208;28;20065;-36
2023/03/01 01:19:10;;;;;;;13.63;8.05;;;0.20;99.90;;;;;;5000788;28;20547;-35
2023/03/01 01:21:36;;;;;;;14.90;8.38;;;0.20;99.90;;;;;;5011664;28;20132;-35
2023/03/01 01:24:04;;;;;;;13.50;8.15;;;0.20;99.90;;;;;;5004825;28;20520;-35
2023/03/01 01:26:32;;;;;;;14.15;7.78;;;0.20;99.90;;;;;;5007654;28;20073;-36
2023/03/01 01:28:59;;;;;;;14.38;8.23;;;0.10;99.90;;;;;;5003953;28;20050;-36
2023/03/01 01:31:26;;;;;;;15.55;8.13;;;0.10;99.90;;;;;;5004848;28;20141;-37
2023/03/01 01:33:53;;;;;;;14.48;7.75;;;0.10;99.90;;;;;;5003095;28;20034;-37
2023/03/01 01:36:18;;;;;;;13.23;7.28;;;0.10;99.90;;;;;;5007113;28;20503;-36
2023/03/01 01:38:44;;;;;;;15.05;8.30;;;0.00;99.90;;;;;;5005842;28;20561;-36
2023/03/01 01:41:11;;;;;;;15.90;8.50;;;0.00;99.90;;;;;;5009960;28;20046;-39
2023/03/01 01:43:59;;;;;;;16.58;9.00;;;0.00;99.90;;;;;;5006845;28;20073;-36
2023/03/01 01:46:38;;;;;;;15.68;8.52;;;0.00;99.90;;;;;;5001219;28;20073;-38
2023/03/01 01:49:16;;;;;;;16.05;8.25;;;0.00;99.90;;;;;;5006462;28;20114;-35
2023/03/01 01:51:45;;;;;;;15.32;7.82;;;-0.10;99.90;;;;;;5002874;28;20630;-36
2023/03/01 01:54:37;;;;;;;14.27;8.15;;;-0.10;99.90;;;;;;5006994;28;20041;-36
2023/03/01 01:57:07;;;;;;;14.83;8.63;;;-0.20;99.90;;;;;;5002867;28;20037;-36
2023/03/01 01:59:34;;;;;;;13.27;7.57;;;-0.20;99.90;;;;;;5007016;28;20419;-36
2023/03/01 02:02:03;;;;;;;16.33;8.75;;;-0.20;99.90;;;;;;5008856;28;20050;-36
2023/03/01 02:04:31;;;;;;;16.98;8.68;;;-0.20;99.90;;;;;;5009030;28;20624;-34
2023/03/01 02:07:13;;;;;;;15.23;8.95;;;-0.20;99.90;;;;;;5003901;28;20045;-35
2023/03/01 02:09:40;;;;;;;17.95;9.23;;;-0.20;99.90;;;;;;5002706;28;20150;-35
2023/03/01 02:12:06;;;;;;;13.75;7.53;;;-0.20;99.90;;;;;;5005780;28;20042;-35
2023/03/01 02:14:32;;;;;;;15.88;8.65;;;-0.20;99.90;;;;;;5007477;28;20092;-35
2023/03/01 02:16:58;;;;;;;15.88;8.27;;;-0.20;99.90;;;;;;5003221;28;20068;-36
2023/03/01 02:19:51;;;;;;;18.60;9.63;;;-0.20;99.90;;;;;;5006474;28;20045;-36
2023/03/01 02:22:31;;;;;;;24.33;10.20;;;-0.30;99.90;;;;;;5005877;28;20127;-35
2023/03/01 02:25:20;;;;;;;16.35;8.82;;;-0.20;99.90;;;;;;5006190;28;20538;-35
2023/03/01 02:27:53;;;;;;;14.35;7.75;;;-0.30;99.90;;;;;;5006479;28;20128;-36
2023/03/01 02:30:20;;;;;;;16.73;8.52;;;-0.30;99.90;;;;;;5004830;28;20049;-36
2023/03/01 02:32:47;;;;;;;17.50;8.93;;;-0.30;99.90;;;;;;5008581;28;20045;-35
2023/03/01 02:35:15;;;;;;;17.23;9.18;;;-0.30;99.90;;;;;;5003243;28;20168;-37
2023/03/01 02:37:43;;;;;;;16.33;8.98;;;-0.30;99.90;;;;;;5004018;28;20052;-36
2023/03/01 02:40:17;;;;;;;15.88;8.68;;;-0.30;99.90;;;;;;5003495;28;20072;-36
2023/03/01 02:42:53;;;;;;;16.67;7.97;;;-0.30;99.90;;;;;;5004879;28;20048;-36
2023/03/01 02:45:19;;;;;;;18.30;9.35;;;-0.30;99.90;;;;;;5007185;28;20057;-35
2023/03/01 02:47:45;;;;;;;18.40;8.63;;;-0.20;99.90;;;;;;5004859;28;20042;-35
2023/03/01 02:50:44;;;;;;;20.52;10.07;;;-0.30;99.90;;;;;;5005135;28;20077;-36
2023/03/01 02:53:34;;;;;;;17.55;10.32;;;-0.20;99.90;;;;;;5003856;28;20069;-36
2023/03/01 02:56:01;;;;;;;20.95;10.70;;;-0.20;99.90;;;;;;5005639;28;20038;-36
2023/03/01 02:58:27;;;;;;;18.58;9.07;;;-0.10;99.90;;;;;;5001151;28;20048;-35
2023/03/01 03:00:53;;;;;;;25.40;10.20;;;-0.10;99.90;;;;;;5008380;28;20046;-35
2023/03/01 03:03:20;;;;;;;17.90;8.88;;;-0.10;99.90;;;;;;5004653;28;20526;-35
2023/03/01 03:05:47;;;;;;;19.67;10.30;;;-0.10;99.90;;;;;;5007626;28;20105;-36
2023/03/01 03:08:14;;;;;;;25.77;11.95;;;-0.10;99.90;;;;;;5002853;28;20046;-35
2023/03/01 03:10:41;;;;;;;38.22;11.75;;;-0.10;99.90;;;;;;5007264;28;20430;-36
2023/03/01 03:13:10;;;;;;;27.35;10.60;;;-0.10;99.90;;;;;;5001890;28;20416;-36
2023/03/01 03:15:36;;;;;;;22.35;9.85;;;-0.20;99.90;;;;;;5003243;28;20581;-36
2023/03/01 03:18:03;;;;;;;23.92;11.45;;;-0.20;99.90;;;;;;5006882;28;20038;-36
2023/03/01 03:20:30;;;;;;;32.05;8.82;;;-0.20;99.90;;;;;;5005398;28;20037;-35
2023/03/01 03:22:58;;;;;;;50.58;13.73;;;-0.20;99.90;;;;;;5002872;28;20037;-35
2023/03/01 03:25:25;;;;;;;39.13;13.02;;;-0.20;99.90;;;;;;5003636;28;20491;-35
2023/03/01 03:27:58;;;;;;;39.60;10.65;;;-0.20;99.90;;;;;;5003036;28;20042;-35
2023/03/01 03:30:26;;;;;;;59.97;13.65;;;-0.20;99.90;;;;;;5004311;28;20045;-35
2023/03/01 03:32:52;;;;;;;41.50;10.68;;;-0.20;99.90;;;;;;5003377;28;20033;-46
2023/03/01 03:35:30;;;;;;;69.68;12.38;;;-0.30;99.90;;;;;;5005588;28;20511;-35
2023/03/01 03:38:03;;;;;;;173.32;16.48;;;-0.30;99.90;;;;;;5002741;28;20054;-37
2023/03/01 03:40:36;;;;;;;;;;;-0.30;99.90;;;;;;5000516;28;20056;-35
2023/03/01 03:43:22;;;;;;;30.05;9.73;;;-0.30;99.90;;;;;;4998926;28;19933;-35
2023/03/01 03:45:50;;;;;;;37.88;9.90;;;-0.30;99.90;;;;;;5001369;28;20057;-42
2023/03/01 03:48:17;;;;;;;41.85;11.82;;;-0.30;99.90;;;;;;5004347;28;20038;-35
2023/03/01 03:50:49;;;;;;;50.08;10.90;;;-0.40;99.90;;;;;;5003680;28;20051;-36
2023/03/01 03:53:15;;;;;;;29.52;10.07;;;-0.30;99.90;;;;;;5000750;28;20598;-35
2023/03/01 03:55:40;;;;;;;29.35;9.73;;;-0.40;99.90;;;;;;5003427;28;20087;-35
2023/03/01 03:58:09;;;;;;;19.60;10.13;;;-0.40;99.90;;;;;;5004001;28;20471;-35
2023/03/01 04:00:40;;;;;;;23.33;10.05;;;-0.40;99.90;;;;;;5004020;28;20450;-36
2023/03/01 04:03:06;;;;;;;18.50;8.45;;;-0.40;99.90;;;;;;5005576;28;20037;-36
2023/03/01 04:05:32;;;;;;;19.05;9.07;;;-0.40;99.90;;;;;;5006652;28;20066;-36
2023/03/01 04:08:01;;;;;;;20.90;11.40;;;-0.40;99.90;;;;;;5000400;28;20128;-36
2023/03/01 04:10:32;;;;;;;19.17;9.45;;;-0.40;99.90;;;;;;5000251;28;20038;-36
2023/03/01 04:12:57;;;;;;;26.20;8.18;;;-0.30;99.90;;;;;;5004824;28;20046;-36
2023/03/01 04:15:24;;;;;;;38.92;11.18;;;-0.30;99.90;;;;;;5001960;28;20046;-37
2023/03/01 04:17:52;;;;;;;41.50;9.57;;;-0.30;99.90;;;;;;5001906;28;20503;-35
2023/03/01 04:20:24;;;;;;;58.33;12.15;;;-0.40;99.90;;;;;;5003262;28;20431;-37
2023/03/01 04:22:59;;;;;;;77.28;11.48;;;-0.40;99.90;;;;;;5002575;28;20050;-36
2023/03/01 04:25:25;;;;;;;106.65;14.88;;;-0.40;99.90;;;;;;5006642;28;20045;-37
2023/03/01 04:27:50;;;;;;;68.75;10.32;;;-0.50;99.90;;;;;;5003992;28;20087;-36
2023/03/01 04:30:16;;;;;;;54.83;12.15;;;-0.50;99.90;;;;;;5002057;28;20038;-35
2023/03/01 04:32:43;;;;;;;101.07;13.68;;;-0.60;99.90;;;;;;5004892;28;20030;-35
2023/03/01 04:35:09;;;;;;;33.00;7.97;;;-0.70;99.90;;;;;;5005099;28;20111;-36
2023/03/01 04:37:34;;;;;;;51.53;9.60;;;-0.70;99.90;;;;;;5003152;28;20042;-36
2023/03/01 04:40:15;;;;;;;61.78;11.65;;;-0.80;99.90;;;;;;5007181;28;20042;-36
2023/03/01 04:42:42;;;;;;;36.58;9.10;;;-0.80;99.90;;;;;;5002346;28;20077;-35
2023/03/01 04:45:12;;;;;;;107.32;13.93;;;-0.90;99.90;;;;;;4997939;28;20088;-35
2023/03/01 04:47:42;;;;;;;78.07;10.40;;;-0.90;99.90;;;;;;5005606;28;20081;-37
2023/03/01 04:50:10;;;;;;;48.70;8.40;;;-1.00;99.90;;;;;;5003902;28;20853;-35
2023/03/01 04:52:36;;;;;;;73.05;12.80;;;-1.00;99.90;;;;;;5004023;28;20034;-37
2023/03/01 04:55:03;;;;;;;106.93;14.40;;;-1.10;99.90;;;;;;5001508;28;20056;-35
2023/03/01 04:57:29;;;;;;;107.25;13.85;;;-1.10;99.90;;;;;;4999110;28;20038;-36
2023/03/01 04:59:55;;;;;;;137.70;13.77;;;-1.10;99.90;;;;;;5008909;28;20526;-36
2023/03/01 05:02:21;;;;;;;73.15;11.90;;;-1.10;99.90;;;;;;5002407;28;20041;-36
2023/03/01 05:04:46;;;;;;;110.45;13.48;;;-1.10;99.90;;;;;;5009170;28;20190;-35
2023/03/01 05:07:12;;;;;;;47.80;9.40;;;-1.20;99.90;;;;;;5006206;28;20049;-35
2023/03/01 05:09:38;;;;;;;94.05;12.65;;;-1.20;99.90;;;;;;5006752;28;20045;-35
2023/03/01 05:12:04;;;;;;;153.25;14.55;;;-1.10;99.90;;;;;;5007081;28;20048;-35
2023/03/01 05:14:30;;;;;;;138.48;14.13;;;-1.20;99.90;;;;;;5009780;28;20034;-36
2023/03/01 05:17:03;;;;;;;127.70;16.73;;;-1.30;99.90;;;;;;5003227;28;20042;-35
2023/03/01 05:19:30;;;;;;;149.68;17.63;;;-1.30;99.90;;;;;;5007319;28;20057;-35
2023/03/01 05:22:05;;;;;;;100.82;13.15;;;-1.30;99.90;;;;;;5007737;28;20096;-36
2023/03/01 05:24:33;;;;;;;82.82;12.18;;;-1.30;99.90;;;;;;5008293;28;20034;-48
2023/03/01 05:27:00;;;;;;;136.82;15.95;;;-1.40;99.90;;;;;;5004626;28;20552;-36
2023/03/01 05:29:27;;;;;;;155.80;19.65;;;-1.50;99.90;;;;;;5005975;28;20042;-36
2023/03/01 05:31:54;;;;;;;247.73;21.00;;;-1.50;99.90;;;;;;5003839;28;20511;-35
2023/03/01 05:34:28;;;;;;;157.73;18.10;;;-1.60;99.90;;;;;;5008559;28;20042;-35
2023/03/01 05:36:54;;;;;;;180.25;22.48;;;-1.60;99.90;;;;;;5005415;28;20048;-36
2023/03/01 05:39:22;;;;;;;241.43;24.52;;;-1.60;99.90;;;;;;5005459;28;20045;-36
2023/03/01 05:41:48;;;;;;;139.63;16.08;;;-1.70;99.90;;;;;;5004271;28;20132;-35
2023/03/01 05:44:14;;;;;;;100.93;12.65;;;-1.70;99.90;;;;;;5001653;28;20038;-37
2023/03/01 05:46:40;;;;;;;156.95;19.98;;;-1.70;99.90;;;;;;5007790;28;20052;-35
2023/03/01 05:49:06;;;;;;;104.60;11.88;;;-1.70;99.90;;;;;;5003662;28;20065;-36
2023/03/01 05:51:32;;;;;;;104.85;12.65;;;-1.80;99.90;;;;;;5002409;28;20034;-35
2023/03/01 05:53:57;;;;;;;111.20;16.88;;;-1.90;99.90;;;;;;5002749;28;20049;-37
2023/03/01 05:56:23;;;;;;;141.00;15.15;;;-2.00;99.90;;;;;;5003693;28;20470;-36
2023/03/01 05:58:49;;;;;;;58.17;10.93;;;-2.00;99.90;;;;;;5007743;28;20427;-36
2023/03/01 06:01:15;;;;;;;67.80;14.18;;;-2.00;99.90;;;;;;5004693;28;20037;-44
2023/03/01 06:03:41;;;;;;;59.97;12.82;;;-2.10;99.90;;;;;;5005816;28;20328;-44
2023/03/01 06:06:07;;;;;;;29.85;8.45;;;-2.10;99.90;;;;;;5005848;28;20041;-50
2023/03/01 06:08:33;;;;;;;49.40;9.15;;;-2.10;99.90;;;;;;5001287;28;20431;-47
2023/03/01 06:10:59;;;;;;;48.10;8.45;;;-2.10;99.90;;;;;;5004245;28;20120;-45
2023/03/01 06:13:24;;;;;;;79.78;11.38;;;-2.20;99.90;;;;;;5002554;28;20377;-41
2023/03/01 06:15:50;;;;;;;26.42;7.45;;;-2.20;99.90;;;;;;5005384;28;20401;-42
2023/03/01 06:18:16;;;;;;;21.50;7.50;;;-2.20;99.90;;;;;;5004288;28;20513;-42
2023/03/01 06:20:42;;;;;;;18.33;6.70;;;-2.20;99.90;;;;;;5002721;28;20042;-43
2023/03/01 06:23:07;;;;;;;21.35;8.02;;;-2.30;99.90;;;;;;5000881;28;20037;-44
2023/03/01 06:25:33;;;;;;;14.68;6.93;;;-2.30;99.90;;;;;;5003455;28;20041;-41
2023/03/01 06:27:59;;;;;;;12.43;7.05;;;-2.30;99.90;;;;;;5004911;28;20326;-42
2023/03/01 06:30:26;;;;;;;11.30;6.00;;;-2.40;99.90;;;;;;5005252;28;20034;-43
2023/03/01 06:32:52;;;;;;;11.18;6.40;;;-2.40;99.90;;;;;;5002895;28;20163;-43
2023/03/01 06:35:19;;;;;;;11.43;6.53;;;-2.40;99.90;;;;;;5003364;28;20042;-43
2023/03/01 06:37:47;;;;;;;10.55;5.72;;;-2.40;99.90;;;;;;5017973;28;20045;-45
2023/03/01 06:40:13;;;;;;;10.80;6.63;;;-2.30;99.90;;;;;;4999765;28;20052;-42
2023/03/01 06:42:41;;;;;;;11.27;6.03;;;-2.30;99.90;;;;;;5005902;28;20037;-41
2023/03/01 06:45:08;;;;;;;12.05;7.03;;;-2.30;99.90;;;;;;5000076;28;20506;-38
2023/03/01 06:47:34;;;;;;;12.55;7.03;;;-2.30;99.90;;;;;;4997009;28;20134;-38
2023/03/01 06:50:01;;;;;;;11.13;6.32;;;-2.30;99.90;;;;;;5000474;28;20038;-38
2023/03/01 06:52:27;;;;;;;11.30;6.78;;;-2.30;99.90;;;;;;4997926;28;20400;-38
2023/03/01 06:54:52;;;;;;;10.27;6.00;;;-2.30;99.90;;;;;;4996655;28;20065;-38
2023/03/01 06:57:18;;;;;;;10.15;5.70;;;-2.20;99.90;;;;;;5013346;28;20412;-37
2023/03/01 06:59:44;;;;;;;10.40;5.88;;;-2.20;99.90;;;;;;5009238;28;20129;-38
2023/03/01 07:02:11;;;;;;;10.90;6.50;;;-2.20;99.90;;;;;;4993398;28;20426;-36
2023/03/01 07:04:38;;;;;;;8.88;5.90;;;-2.20;99.90;;;;;;5000666;28;20058;-37
2023/03/01 07:07:03;;;;;;;10.75;5.82;;;-2.10;99.90;;;;;;4991268;28;20049;-38
2023/03/01 07:09:29;;;;;;;9.88;5.50;;;-2.10;99.90;;;;;;5005447;28;20057;-36
2023/03/01 07:11:56;;;;;;;11.65;6.55;;;-2.00;99.90;;;;;;5003040;28;20057;-37
2023/03/01 07:14:24;;;;;;;12.65;6.85;;;-2.00;99.90;;;;;;5003186;28;20052;-36
2023/03/01 07:16:50;;;;;;;14.27;7.15;;;-2.00;99.90;;;;;;5004025;28;20050;-36
2023/03/01 07:19:15;;;;;;;14.43;8.10;;;-1.90;99.90;;;;;;5002822;28;20060;-36
2023/03/01 07:21:41;;;;;;;13.55;7.20;;;-1.90;99.90;;;;;;5001726;28;20141;-36
2023/03/01 07:24:07;;;;;;;15.07;8.30;;;-1.80;99.90;;;;;;5002844;28;20123;-36
2023/03/01 07:26:33;;;;;;;16.58;7.82;;;-1.80;99.90;;;;;;5002911;28;20116;-37
2023/03/01 07:29:00;;;;;;;17.70;8.40;;;-1.70;99.90;;;;;;5000695;28;20073;-36
2023/03/01 07:31:27;;;;;;;15.23;8.50;;;-1.70;99.90;;;;;;5000028;28;20057;-36
2023/03/01 07:33:54;;;;;;;12.55;7.07;;;-1.60;99.90;;;;;;4999795;28;20046;-36
2023/03/01 07:36:20;;;;;;;13.70;7.03;;;-1.60;99.90;;;;;;5002821;28;20074;-38
2023/03/01 07:38:45;;;;;;;14.60;8.02;;;-1.50;99.90;;;;;;5001898;28;20481;-37
2023/03/01 07:41:11;;;;;;;14.40;8.13;;;-1.50;99.90;;;;;;5002106;28;20070;-36
2023/03/01 07:43:37;;;;;;;15.75;8.52;;;-1.40;99.90;;;;;;5002750;28;20058;-37
2023/03/01 07:46:03;;;;;;;17.05;9.68;;;-1.40;99.90;;;;;;5001727;28;20562;-36
2023/03/01 07:48:30;;;;;;;14.73;7.78;;;-1.30;99.90;;;;;;5005307;28;20582;-36
2023/03/01 07:51:04;;;;;;;16.73;8.68;;;-1.30;99.90;;;;;;5003023;28;20073;-35
2023/03/01 07:53:31;;;;;;;16.15;9.00;;;-1.20;99.90;;;;;;5001320;28;20049;-36
2023/03/01 07:56:10;;;;;;;18.05;9.05;;;-1.10;99.90;;;;;;5003152;28;20407;-36
2023/03/01 07:58:37;;;;;;;17.98;9.00;;;-1.00;99.90;;;;;;4999016;28;20060;-38
2023/03/01 08:01:04;;;;;;;16.05;8.85;;;-0.90;99.90;;;;;;4998562;28;20507;-37
2023/03/01 08:03:30;;;;;;;18.25;9.65;;;-0.90;99.90;;;;;;5000897;28;20487;-36
2023/03/01 08:05:58;;;;;;;17.05;9.48;;;-0.80;99.90;;;;;;5000397;28;20053;-36
2023/03/01 08:08:24;;;;;;;16.95;9.15;;;-0.70;99.90;;;;;;4998240;28;20124;-35
2023/03/01 08:10:50;;;;;;;15.43;8.70;;;-0.70;99.90;;;;;;4997183;28;20099;-36
2023/03/01 08:13:15;;;;;;;19.58;10.27;;;-0.60;99.90;;;;;;4999860;28;20056;-36
2023/03/01 08:15:41;;;;;;;22.20;10.73;;;-0.50;99.90;;;;;;4999941;28;20053;-36
2023/03/01 08:18:07;;;;;;;21.88;11.80;;;-0.40;99.90;;;;;;5000519;28;20057;-36
2023/03/01 08:20:32;;;;;;;18.33;9.77;;;-0.30;99.90;;;;;;4999973;28;20046;-36
2023/03/01 08:22:58;;;;;;;18.15;9.93;;;-0.20;99.90;;;;;;4998950;28;20052;-36
2023/03/01 08:25:24;;;;;;;20.35;10.68;;;-0.10;99.90;;;;;;5001378;28;20058;-36
2023/03/01 08:27:49;;;;;;;20.15;10.13;;;-0.10;99.90;;;;;;5003733;28;20083;-36
2023/03/01 08:30:15;;;;;;;21.20;11.00;;;0.00;99.90;;;;;;4997310;28;20045;-45
2023/03/01 08:32:41;;;;;;;15.98;9.30;;;0.10;99.90;;;;;;4999547;28;20081;-44
2023/03/01 08:35:07;;;;;;;18.70;9.38;;;0.20;99.90;;;;;;5019962;28;20073;-43
2023/03/01 08:37:33;;;;;;;18.90;10.27;;;0.30;99.90;;;;;;5004927;28;20049;-42
2023/03/01 08:40:00;;;;;;;17.52;10.05;;;0.40;99.90;;;;;;5003123;28;20120;-46
2023/03/01 08:42:26;;;;;;;16.33;8.95;;;0.50;99.90;;;;;;5004161;28;20553;-44
2023/03/01 08:44:52;;;;;;;19.95;10.68;;;0.60;99.90;;;;;;5004062;28;20108;-45
2023/03/01 08:47:17;;;;;;;19.55;10.43;;;0.70;99.90;;;;;;5003354;28;20065;-44
2023/03/01 08:49:43;;;;;;;19.73;9.02;;;0.80;99.90;;;;;;5004940;28;20054;-45
2023/03/01 08:52:09;;;;;;;24.88;11.60;;;1.00;99.90;;;;;;5004738;28;20054;-45
2023/03/01 08:54:34;;;;;;;18.15;10.23;;;1.00;99.90;;;;;;5003006;28;20123;-39
2023/03/01 08:57:03;;;;;;;20.83;10.90;;;1.20;99.90;;;;;;5003456;28;20414;-38
2023/03/01 08:59:29;;;;;;;19.50;10.38;;;1.30;99.90;;;;;;5002696;28;20089;-40
2023/03/01 09:01:55;;;;;;;19.65;10.35;;;1.50;99.90;;;;;;5005481;28;20586;-40
2023/03/01 09:04:21;;;;;;;15.40;8.13;;;1.60;99.90;;;;;;5001800;28;20065;-41
2023/03/01 09:06:48;;;;;;;17.08;9.00;;;1.70;99.90;;;;;;5004243;28;20120;-35
2023/03/01 09:09:16;;;;;;;16.60;9.23;;;1.90;99.90;;;;;;5009488;28;20116;-35
2023/03/01 09:11:45;;;;;;;16.80;8.48;;;2.00;99.90;;;;;;5014811;28;20565;-35
2023/03/01 09:14:12;;;;;;;13.43;7.18;;;2.10;99.90;;;;;;5001684;28;20481;-35
2023/03/01 09:16:37;;;;;;;17.60;8.13;;;2.30;99.90;;;;;;5002661;28;20049;-35
2023/03/01 09:19:04;;;;;;;11.55;6.38;;;2.30;99.90;;;;;;5000299;28;20062;-36
2023/03/01 09:21:30;;;;;;;12.35;6.72;;;2.50;99.90;;;;;;5005779;28;20050;-41
2023/03/01 09:23:57;;;;;;;12.18;6.53;;;2.50;99.90;;;;;;5013269;28;20084;-41
2023/03/01 09:26:23;;;;;;;12.63;6.55;;;2.60;99.90;;;;;;5004796;28;20050;-41
2023/03/01 09:28:51;;;;;;;12.10;6.30;;;2.70;99.90;;;;;;4997047;28;20054;-41
2023/03/01 09:31:18;;;;;;;9.48;5.43;;;2.80;99.90;;;;;;4994041;28;20132;-43
2023/03/01 09:33:47;;;;;;;11.60;6.45;;;2.90;99.90;;;;;;5004066;28;20042;-42
2023/03/01 09:36:16;;;;;;;9.40;5.28;;;3.00;99.90;;;;;;5003869;28;20069;-43
2023/03/01 09:38:42;;;;;;;10.07;5.18;;;3.10;99.90;;;;;;5002873;28;20057;-42
2023/03/01 09:41:37;;;;;;;9.52;5.13;;;3.20;99.90;;;;;;5002676;28;20053;-43
2023/03/01 09:44:25;;;;;;;10.88;4.88;;;3.30;99.90;;;;;;5003846;28;20081;-35
2023/03/01 09:46:51;;;;;;;9.07;4.63;;;3.40;99.90;;;;;;5003595;28;20519;-37
2023/03/01 09:49:21;;;;;;;9.00;4.50;;;3.60;99.90;;;;;;5004075;28;20051;-36
2023/03/01 09:52:02;;;;;;;10.02;4.32;;;3.60;99.60;;;;;;5001388;28;20057;-36
2023/03/01 09:54:28;;;;;;;9.80;5.18;;;3.80;99.00;;;;;;5000882;28;20488;-36
2023/03/01 09:57:19;;;;;;;8.65;4.00;;;3.90;99.10;;;;;;5001906;28;20050;-36
2023/03/01 10:00:04;;;;;;;9.68;3.97;;;4.00;98.90;;;;;;4991493;28;20047;-36
2023/03/01 10:02:49;;;;;;;6.93;3.60;;;4.10;98.30;;;;;;5003587;28;20042;-36
2023/03/01 10:05:33;;;;;;;7.65;3.67;;;4.20;98.00;;;;;;5005163;28;20057;-37
2023/03/01 10:08:01;;;;;;;5.20;2.88;;;4.30;97.80;;;;;;4999221;28;20057;-38
2023/03/01 10:10:39;;;;;;;5.57;3.05;;;4.40;97.60;;;;;;5005771;28;20049;-35
2023/03/01 10:13:21;;;;;;;7.30;2.83;;;4.50;96.60;;;;;;5002280;28;20049;-36
2023/03/01 10:15:55;;;;;;;5.97;2.90;;;4.60;96.20;;;;;;5003113;28;20054;-36
2023/03/01 10:18:28;;;;;;;5.03;2.45;;;4.70;96.00;;;;;;4999719;28;20054;-36
2023/03/01 10:21:21;;;;;;;6.22;2.30;;;4.70;95.50;;;;;;5015083;28;20132;-36
2023/03/01 10:23:50;;;;;;;;;;;4.90;95.10;;;;;;5002077;28;20054;-36
2023/03/01 10:26:48;;;;;;;5.45;2.90;;;5.00;94.00;;;;;;5002607;28;19987;-41
2023/03/01 10:29:14;;;;;;;4.45;2.10;;;5.00;93.50;;;;;;5002864;28;20058;-42
2023/03/01 10:31:46;;;;;;;4.53;2.38;;;5.10;93.00;;;;;;5003850;28;20128;-44
2023/03/01 10:34:16;;;;;;;4.57;2.05;;;5.10;92.90;;;;;;5001070;28;20053;-43
2023/03/01 10:36:43;;;;;;;4.80;2.20;;;5.20;92.60;;;;;;5003598;28;20037;-41
2023/03/01 10:39:21;;;;;;;5.28;2.33;;;5.20;92.60;;;;;;5002519;28;20060;-44
2023/03/01 10:42:18;;;;;;;4.55;2.20;;;5.30;92.10;;;;;;5003009;28;20096;-45
2023/03/01 10:44:46;;;;;;;5.28;2.40;;;5.40;92.00;;;;;;5002201;28;20108;-42
2023/03/01 10:47:15;;;;;;;5.03;2.33;;;5.50;92.30;;;;;;4998857;28;20097;-41
2023/03/01 10:49:54;;;;;;;6.20;3.00;;;5.60;91.70;;;;;;5002870;28;20515;-41
2023/03/01 10:52:23;;;;;;;5.22;2.85;;;5.70;91.00;;;;;;5002615;28;20054;-42
2023/03/01 10:55:12;;;;;;;4.97;2.08;;;5.70;90.80;;;;;;5015899;28;20057;-41
2023/03/01 10:57:40;;;;;;;4.10;2.10;;;5.80;89.70;;;;;;4999762;28;20088;-40
2023/03/01 11:00:25;;;;;;;4.88;1.80;;;5.80;90.00;;;;;;5000177;28;20084;-42
2023/03/01 11:02:58;;;;;;;4.22;1.73;;;5.90;89.80;;;;;;5004476;28;20057;-50
2023/03/01 11:05:25;;;;;;;5.30;2.40;;;6.00;90.00;;;;;;4999924;28;20054;-38
2023/03/01 11:07:59;;;;;;;4.35;1.90;;;6.10;88.40;;;;;;5000906;28;20535;-37
2023/03/01 11:10:34;;;;;;;5.00;2.47;;;6.20;88.30;;;;;;4996728;28;20077;-37
2023/03/01 11:13:19;;;;;;;5.57;2.20;;;6.30;86.80;;;;;;4995199;28;20066;-37
2023/03/01 11:16:06;;;;;;;5.85;2.25;;;6.40;85.80;;;;;;5000529;28;20135;-38
2023/03/01 11:18:32;;;;;;;4.43;2.10;;;6.50;84.70;;;;;;5000070;28;20050;-41
2023/03/01 11:21:01;;;;;;;7.35;2.50;;;6.50;84.40;;;;;;5002105;28;20470;-37
2023/03/01 11:23:30;;;;;;;6.53;2.20;;;6.60;84.50;;;;;;5003024;28;20042;-38
2023/03/01 11:26:02;;;;;;;7.05;2.42;;;6.60;83.00;;;;;;5000438;28;20080;-37
2023/03/01 11:28:30;;;;;;;5.93;2.13;;;6.70;82.50;;;;;;4997952;28;20119;-37
2023/03/01 11:31:14;;;;;;;5.55;2.60;;;6.80;82.30;;;;;;5003706;28;20932;-37
2023/03/01 11:34:07;;;;;;;4.35;1.83;;;6.90;81.10;;;;;;4998871;28;20045;-37
2023/03/01 11:36:46;;;;;;;8.45;2.20;;;7.00;79.50;;;;;;5000409;28;20057;-38
2023/03/01 11:39:46;;;;;;;4.57;2.22;;;7.20;80.40;;;;;;5000776;28;20041;-38
2023/03/01 11:42:20;;;;;;;6.40;3.20;;;7.30;78.50;;;;;;4998987;28;20065;-37
2023/03/01 11:44:54;;;;;;;7.80;2.85;;;7.40;78.30;;;;;;5002195;28;20181;-37
2023/03/01 11:47:39;;;;;;;4.85;2.28;;;7.50;77.20;;;;;;5000527;28;20145;-37
2023/03/01 11:50:20;;;;;;;6.07;2.63;;;7.50;75.00;;;;;;5002137;28;20068;-37
2023/03/01 11:53:23;;;;;;;4.47;2.42;;;7.60;76.70;;;;;;5001549;28;20534;-38
2023/03/01 11:55:48;;;;;;;5.15;2.42;;;7.70;74.50;;;;;;5002951;28;20057;-37
2023/03/01 11:58:27;;;;;;;6.68;2.90;;;7.90;75.50;;;;;;4999244;28;20068;-37
2023/03/01 12:01:21;;;;;;;7.90;2.63;;;8.10;75.20;;;;;;5002037;28;20073;-38
2023/03/01 12:04:24;;;;;;;7.45;2.78;;;8.20;72.70;;;;;;4983015;28;20054;-38
2023/03/01 12:07:09;;;;;;;5.35;2.50;;;8.40;72.10;;;;;;5000294;28;20054;-37
2023/03/01 12:09:59;;;;;;;7.75;2.63;;;8.70;71.60;;;;;;5002081;28;20053;-37
2023/03/01 12:12:38;;;;;;;6.10;2.40;;;9.30;69.70;;;;;;5000735;28;20313;-37
2023/03/01 12:15:27;;;;;;;6.43;2.53;;;9.70;66.70;;;;;;5001884;28;20053;-37
2023/03/01 12:18:02;;;;;;;6.55;2.90;;;10.20;65.60;;;;;;5017860;28;20049;-38
2023/03/01 12:20:30;;;;;;;5.47;2.95;;;10.60;63.30;;;;;;5004216;28;20045;-37
2023/03/01 12:22:56;;;;;;;6.15;3.33;;;10.90;61.80;;;;;;5001913;28;20058;-37
2023/03/01 12:25:45;;;;;;;6.10;3.17;;;11.20;60.80;;;;;;5002782;28;20107;-38
2023/03/01 12:28:21;;;;;;;6.03;2.95;;;11.50;58.40;;;;;;4996313;28;20428;-38
2023/03/01 12:30:53;;;;;;;6.47;2.80;;;11.80;58.60;;;;;;5000476;28;20053;-37
2023/03/01 12:33:46;;;;;;;5.60;2.55;;;12.10;57.00;;;;;;4999367;28;20049;-38
2023/03/01 12:36:26;;;;;;;9.85;3.35;;;12.40;54.30;;;;;;5002573;28;20057;-37
2023/03/01 12:38:57;;;;;;;5.93;3.20;;;12.70;54.20;;;;;;5000062;28;20053;-38
2023/03/01 12:41:43;;;;;;;6.95;2.83;;;13.00;53.60;;;;;;5002753;28;20057;-37
2023/03/01 12:44:23;;;;;;;4.80;2.40;;;13.30;52.40;;;;;;5002461;28;20620;-38
2023/03/01 12:46:59;;;;;;;5.35;2.85;;;13.80;52.10;;;;;;5001431;28;20054;-46
2023/03/01 12:49:32;;;;;;;6.22;2.42;;;14.00;49.90;;;;;;5003160;28;20065;-50
2023/03/01 12:52:11;;;;;;;4.85;2.47;;;14.10;48.00;;;;;;5001438;28;20054;-38
2023/03/01 12:54:37;;;;;;;7.03;2.97;;;14.40;47.40;;;;;;5002620;28;20118;-50
2023/03/01 12:57:40;;;;;;;6.57;2.50;;;14.50;47.10;;;;;;5001199;28;20050;-38
2023/03/01 13:00:28;;;;;;;5.85;2.40;;;14.90;44.50;;;;;;4994450;28;20089;-38